Time;durP1;ratioP1;P1;durP2;ratioP2;P2;SDS_P1;SDS_P2;PMS_P1;PMS_P2;Temp;Humidity;BMP_temperature;BMP_pressure;BME280_temperature;BME280_humidity;BME280_pressure;Samples;Min_cycle;Max_cycle;Signal;HPM_P1;HPM_P2
2024/02/03 00:00:03;;;;;;;12.98;6.75;;;;;;;;;;5057959;28;20483;-57
2024/02/03 00:02:29;;;;;;;15.07;7.43;;;;;;;;;;5063243;28;20117;-57
2024/02/03 00:04:55;;;;;;;13.20;7.45;;;;;;;;;;5069464;28;20466;-58
2024/02/03 00:07:21;;;;;;;12.13;7.10;;;;;;;;;;5065995;28;20387;-58
2024/02/03 00:09:47;;;;;;;14.18;7.25;;;;;;;;;;5064419;28;20024;-57
2024/02/03 00:12:15;;;;;;;11.85;6.57;;;;;;;;;;5070563;28;20078;-57
2024/02/03 00:14:41;;;;;;;12.80;6.72;;;;;;;;;;5070087;28;20075;-58
2024/02/03 00:17:07;;;;;;;12.00;6.75;;;;;;;;;;5070832;28;20028;-57
2024/02/03 00:19:33;;;;;;;11.80;6.35;;;;;;;;;;5074305;28;20548;-57
2024/02/03 00:21:59;;;;;;;14.23;7.50;;;;;;;;;;5073416;28;20028;-57
2024/02/03 00:24:25;;;;;;;11.98;6.60;;;;;;;;;;5073929;28;20099;-57
2024/02/03 00:26:52;;;;;;;15.38;7.25;;;;;;;;;;5057014;28;20091;-58
2024/02/03 00:29:18;;;;;;;15.35;7.35;;;;;;;;;;5071374;28;20474;-57
2024/02/03 00:31:44;;;;;;;12.90;6.72;;;;;;;;;;5073438;28;20028;-58
2024/02/03 00:34:10;;;;;;;12.90;7.00;;;;;;;;;;5061524;28;21723;-56
2024/02/03 00:36:36;;;;;;;12.57;7.25;;;;;;;;;;5064983;28;20032;-57
2024/02/03 00:39:03;;;;;;;14.40;7.45;;;;;;;;;;5054513;28;20075;-58
2024/02/03 00:41:29;;;;;;;15.15;7.10;;;;;;;;;;5063070;28;20028;-57
2024/02/03 00:43:55;;;;;;;12.73;6.85;;;;;;;;;;5073945;28;20029;-58
2024/02/03 00:46:21;;;;;;;11.80;6.32;;;;;;;;;;5073878;28;20156;-57
2024/02/03 00:48:47;;;;;;;12.82;6.70;;;;;;;;;;5072684;28;20043;-57
2024/02/03 00:51:13;;;;;;;16.38;7.28;;;;;;;;;;5073519;28;20466;-57
2024/02/03 00:53:41;;;;;;;12.52;6.53;;;;;;;;;;5064585;28;20074;-58
2024/02/03 00:56:07;;;;;;;12.48;7.43;;;;;;;;;;5074296;28;20112;-58
2024/02/03 00:58:33;;;;;;;13.10;6.28;;;;;;;;;;5069525;28;20028;-57
2024/02/03 01:00:59;;;;;;;12.88;6.70;;;;;;;;;;5073258;28;20090;-61
2024/02/03 01:03:25;;;;;;;11.88;6.43;;;;;;;;;;5042370;28;20033;-58
2024/02/03 01:05:51;;;;;;;12.57;6.57;;;;;;;;;;5072515;28;20531;-61
2024/02/03 01:08:18;;;;;;;11.68;7.25;;;;;;;;;;5063518;28;20040;-61
2024/02/03 01:10:44;;;;;;;13.23;6.88;;;;;;;;;;5071914;28;20060;-60
2024/02/03 01:13:10;;;;;;;15.40;7.18;;;;;;;;;;5073775;28;20083;-60
2024/02/03 01:15:36;;;;;;;12.60;6.35;;;;;;;;;;5073220;28;20402;-60
2024/02/03 01:18:05;;;;;;;11.80;6.60;;;;;;;;;;5066678;28;20052;-60
2024/02/03 01:20:32;;;;;;;10.75;6.40;;;;;;;;;;5058748;28;20025;-61
2024/02/03 01:22:57;;;;;;;12.13;7.13;;;;;;;;;;5061046;28;20486;-60
2024/02/03 01:25:23;;;;;;;15.93;6.38;;;;;;;;;;5068978;28;20029;-61
2024/02/03 01:27:49;;;;;;;11.77;6.03;;;;;;;;;;5069177;28;20033;-60
2024/02/03 01:30:16;;;;;;;10.80;5.72;;;;;;;;;;5073243;28;20027;-60
2024/02/03 01:32:42;;;;;;;12.50;6.18;;;;;;;;;;5059579;28;20086;-61
2024/02/03 01:35:08;;;;;;;10.50;6.10;;;;;;;;;;5067022;28;20445;-61
2024/02/03 01:37:35;;;;;;;11.05;6.53;;;;;;;;;;5072172;28;20375;-61
2024/02/03 01:40:01;;;;;;;12.32;6.47;;;;;;;;;;5063499;28;20106;-61
2024/02/03 01:42:27;;;;;;;14.85;6.88;;;;;;;;;;5071404;28;20431;-61
2024/02/03 01:44:53;;;;;;;10.98;5.47;;;;;;;;;;5073032;28;20057;-60
2024/02/03 01:47:19;;;;;;;13.05;6.68;;;;;;;;;;5073009;28;20029;-62
2024/02/03 01:49:45;;;;;;;9.77;6.22;;;;;;;;;;5063353;28;20037;-61
2024/02/03 01:52:11;;;;;;;10.57;6.35;;;;;;;;;;5066544;28;20036;-61
2024/02/03 01:54:38;;;;;;;11.10;6.25;;;;;;;;;;5057190;28;20060;-60
2024/02/03 01:57:04;;;;;;;9.98;5.90;;;;;;;;;;5057556;28;20021;-61
2024/02/03 01:59:31;;;;;;;9.65;6.05;;;;;;;;;;5051975;28;20025;-60
2024/02/03 02:01:59;;;;;;;10.57;5.95;;;;;;;;;;5071211;28;20033;-61
2024/02/03 02:04:25;;;;;;;12.48;5.82;;;;;;;;;;5061897;28;20105;-61
2024/02/03 02:06:51;;;;;;;12.00;6.40;;;;;;;;;;5070863;28;20104;-65
2024/02/03 02:09:24;;;;;;;10.90;6.47;;;;;;;;;;5072989;28;20078;-64
2024/02/03 02:11:59;;;;;;;13.52;5.75;;;;;;;;;;5037853;28;20052;-65
2024/02/03 02:14:26;;;;;;;9.98;5.95;;;;;;;;;;5062526;28;20087;-65
2024/02/03 02:16:53;;;;;;;9.02;5.47;;;;;;;;;;5058164;28;20074;-65
2024/02/03 02:19:20;;;;;;;8.60;5.75;;;;;;;;;;5068734;28;20028;-64
2024/02/03 02:21:46;;;;;;;10.27;6.20;;;;;;;;;;5071696;28;20125;-65
2024/02/03 02:24:12;;;;;;;11.10;5.70;;;;;;;;;;5065799;28;20047;-63
2024/02/03 02:26:38;;;;;;;10.57;6.00;;;;;;;;;;5072370;28;20115;-65
2024/02/03 02:29:04;;;;;;;10.68;6.32;;;;;;;;;;5071443;28;20032;-65
2024/02/03 02:31:31;;;;;;;11.05;6.15;;;;;;;;;;5068565;28;20036;-65
2024/02/03 02:33:56;;;;;;;10.02;5.88;;;;;;;;;;5069346;28;20032;-65
2024/02/03 02:36:22;;;;;;;10.32;5.90;;;;;;;;;;5070917;28;20032;-65
2024/02/03 02:38:48;;;;;;;12.38;6.57;;;;;;;;;;5072129;28;20021;-65
2024/02/03 02:41:14;;;;;;;13.43;7.07;;;;;;;;;;5064081;28;20029;-64
2024/02/03 02:43:40;;;;;;;15.00;7.55;;;;;;;;;;5071037;28;20056;-64
2024/02/03 02:46:07;;;;;;;14.32;7.10;;;;;;;;;;5064979;28;20475;-65
2024/02/03 02:48:33;;;;;;;14.70;6.80;;;;;;;;;;5072072;28;20032;-63
2024/02/03 02:50:59;;;;;;;12.98;7.53;;;;;;;;;;5051562;28;20043;-65
2024/02/03 02:53:25;;;;;;;14.98;8.13;;;;;;;;;;5070637;28;20033;-65
2024/02/03 02:55:51;;;;;;;13.98;7.13;;;;;;;;;;5072062;28;20029;-65
2024/02/03 02:58:17;;;;;;;13.15;8.00;;;;;;;;;;5064018;28;20479;-64
2024/02/03 03:00:43;;;;;;;13.52;7.18;;;;;;;;;;5060134;28;20040;-64
2024/02/03 03:03:09;;;;;;;14.23;7.38;;;;;;;;;;5043203;28;20040;-61
2024/02/03 03:05:35;;;;;;;14.82;7.00;;;;;;;;;;5065633;28;20398;-65
2024/02/03 03:08:01;;;;;;;12.43;6.50;;;;;;;;;;5069678;28;20051;-61
2024/02/03 03:10:27;;;;;;;13.65;7.43;;;;;;;;;;5070653;28;20043;-66
2024/02/03 03:12:53;;;;;;;15.35;8.02;;;;;;;;;;5071215;28;20379;-66
2024/02/03 03:15:19;;;;;;;11.55;7.15;;;;;;;;;;5065660;28;20033;-65
2024/02/03 03:17:45;;;;;;;18.25;7.45;;;;;;;;;;5061059;28;20021;-59
2024/02/03 03:20:11;;;;;;;12.10;7.15;;;;;;;;;;5058137;28;20086;-60
2024/02/03 03:22:37;;;;;;;13.20;7.07;;;;;;;;;;5061953;28;20024;-60
2024/02/03 03:25:03;;;;;;;14.65;7.82;;;;;;;;;;5054839;28;20025;-60
2024/02/03 03:27:29;;;;;;;13.73;7.18;;;;;;;;;;5055711;28;20043;-60
2024/02/03 03:29:55;;;;;;;14.07;7.53;;;;;;;;;;5070213;28;20021;-59
2024/02/03 03:32:21;;;;;;;13.60;7.43;;;;;;;;;;5071063;28;20020;-60
2024/02/03 03:34:48;;;;;;;14.30;7.50;;;;;;;;;;5055995;28;20505;-60
2024/02/03 03:37:14;;;;;;;12.27;6.80;;;;;;;;;;5064385;28;20029;-59
2024/02/03 03:39:40;;;;;;;15.55;7.88;;;;;;;;;;5056600;28;20107;-60
2024/02/03 03:42:06;;;;;;;16.90;8.65;;;;;;;;;;5070448;28;20012;-59
2024/02/03 03:44:32;;;;;;;12.27;6.95;;;;;;;;;;5072320;28;20024;-60
2024/02/03 03:46:59;;;;;;;13.13;7.95;;;;;;;;;;5061684;28;20390;-60
2024/02/03 03:49:31;;;;;;;14.13;7.43;;;;;;;;;;5070824;28;20016;-60
2024/02/03 03:51:57;;;;;;;14.50;8.23;;;;;;;;;;5071903;28;20070;-59
2024/02/03 03:54:23;;;;;;;15.02;7.65;;;;;;;;;;5074846;28;20032;-59
2024/02/03 03:56:49;;;;;;;14.75;7.50;;;;;;;;;;5074592;28;20036;-59
2024/02/03 03:59:15;;;;;;;17.05;7.97;;;;;;;;;;5050408;28;20413;-59
2024/02/03 04:01:46;;;;;;;16.15;8.60;;;;;;;;;;5073959;28;20033;-59
2024/02/03 04:04:13;;;;;;;17.98;7.88;;;;;;;;;;5074542;28;20035;-59
2024/02/03 04:06:39;;;;;;;15.70;9.52;;;;;;;;;;5061281;28;20094;-59
2024/02/03 04:09:06;;;;;;;14.68;8.20;;;;;;;;;;5070121;28;20044;-60
2024/02/03 04:11:32;;;;;;;15.77;8.63;;;;;;;;;;5063120;28;20036;-60
2024/02/03 04:13:58;;;;;;;17.98;9.43;;;;;;;;;;5059728;28;20491;-59
2024/02/03 04:16:23;;;;;;;16.15;7.93;;;;;;;;;;5074571;28;20401;-60
2024/02/03 04:18:49;;;;;;;14.80;8.50;;;;;;;;;;5074838;28;20102;-59
2024/02/03 04:21:15;;;;;;;16.40;7.75;;;;;;;;;;5071219;28;20025;-59
2024/02/03 04:23:41;;;;;;;12.57;8.23;;;;;;;;;;5067989;28;20074;-59
2024/02/03 04:26:07;;;;;;;18.75;8.43;;;;;;;;;;5069391;28;20041;-60
2024/02/03 04:28:33;;;;;;;19.27;8.15;;;;;;;;;;5063048;28;20028;-60
2024/02/03 04:30:59;;;;;;;15.93;7.95;;;;;;;;;;5048906;28;20656;-59
2024/02/03 04:33:25;;;;;;;17.20;8.48;;;;;;;;;;5066159;28;20439;-60
2024/02/03 04:35:51;;;;;;;13.75;7.97;;;;;;;;;;5056216;28;20095;-59
2024/02/03 04:38:17;;;;;;;15.75;8.82;;;;;;;;;;5073292;28;20017;-59
2024/02/03 04:40:43;;;;;;;15.23;8.55;;;;;;;;;;5073481;28;20062;-60
2024/02/03 04:43:09;;;;;;;15.68;8.10;;;;;;;;;;5073517;28;20024;-59
2024/02/03 04:45:35;;;;;;;14.80;8.18;;;;;;;;;;5067607;28;20040;-59
2024/02/03 04:48:01;;;;;;;17.63;8.55;;;;;;;;;;5074093;28;20086;-59
2024/02/03 04:50:27;;;;;;;12.32;7.63;;;;;;;;;;5074008;28;20034;-59
2024/02/03 04:52:53;;;;;;;12.10;7.10;;;;;;;;;;5072607;28;20177;-60
2024/02/03 04:55:22;;;;;;;18.73;7.60;;;;;;;;;;5070229;28;20075;-60
2024/02/03 04:57:48;;;;;;;16.15;8.25;;;;;;;;;;5071621;28;20063;-59
2024/02/03 05:00:14;;;;;;;16.45;7.90;;;;;;;;;;5059296;28;20060;-59
2024/02/03 05:02:41;;;;;;;12.63;7.72;;;;;;;;;;5067779;28;20036;-60
2024/02/03 05:05:07;;;;;;;16.80;8.88;;;;;;;;;;5070809;28;20028;-60
2024/02/03 05:07:33;;;;;;;19.63;8.20;;;;;;;;;;5073328;28;20530;-60
2024/02/03 05:09:59;;;;;;;13.80;7.53;;;;;;;;;;5064865;28;20155;-59
2024/02/03 05:12:25;;;;;;;14.85;7.68;;;;;;;;;;5069891;28;20470;-59
2024/02/03 05:14:51;;;;;;;16.13;8.13;;;;;;;;;;5071632;28;24086;-59
2024/02/03 05:17:17;;;;;;;16.25;8.40;;;;;;;;;;5073571;28;20367;-59
2024/02/03 05:19:43;;;;;;;14.38;7.47;;;;;;;;;;5068522;28;20020;-59
2024/02/03 05:22:09;;;;;;;12.45;7.32;;;;;;;;;;5067432;28;20029;-59
2024/02/03 05:24:35;;;;;;;13.13;7.35;;;;;;;;;;5066154;28;20122;-59
2024/02/03 05:27:01;;;;;;;11.90;6.35;;;;;;;;;;5071440;28;20032;-59
2024/02/03 05:29:27;;;;;;;13.95;8.02;;;;;;;;;;5071204;28;20095;-61
2024/02/03 05:31:53;;;;;;;13.60;7.13;;;;;;;;;;5071983;28;20043;-60
2024/02/03 05:34:19;;;;;;;16.77;7.35;;;;;;;;;;5061845;28;20024;-59
2024/02/03 05:36:45;;;;;;;13.77;7.63;;;;;;;;;;5067004;28;20028;-65
2024/02/03 05:39:11;;;;;;;11.30;6.63;;;;;;;;;;5071752;28;20424;-66
2024/02/03 05:41:37;;;;;;;10.88;6.53;;;;;;;;;;5072526;28;20027;-66
2024/02/03 05:44:03;;;;;;;12.70;6.78;;;;;;;;;;5072392;28;20032;-63
2024/02/03 05:46:29;;;;;;;10.77;6.32;;;;;;;;;;5069866;28;20028;-66
2024/02/03 05:48:56;;;;;;;12.13;6.50;;;;;;;;;;5069063;28;20478;-66
2024/02/03 05:51:22;;;;;;;10.63;6.07;;;;;;;;;;5072113;28;20063;-65
2024/02/03 05:53:47;;;;;;;12.25;6.78;;;;;;;;;;5069573;28;20064;-64
2024/02/03 05:56:13;;;;;;;10.80;6.38;;;;;;;;;;5062642;28;20040;-65
2024/02/03 05:58:40;;;;;;;12.13;6.97;;;;;;;;;;5066442;28;20035;-65
2024/02/03 06:01:06;;;;;;;10.45;5.90;;;;;;;;;;5061159;28;20032;-65
2024/02/03 06:03:32;;;;;;;12.23;5.93;;;;;;;;;;5050163;28;20420;-65
2024/02/03 06:05:58;;;;;;;11.35;6.15;;;;;;;;;;5068559;28;20483;-64
2024/02/03 06:08:24;;;;;;;10.40;6.05;;;;;;;;;;5062657;28;20471;-65
2024/02/03 06:10:50;;;;;;;10.48;6.03;;;;;;;;;;5050348;28;20105;-65
2024/02/03 06:13:16;;;;;;;9.32;5.30;;;;;;;;;;5066286;28;20029;-65
2024/02/03 06:15:42;;;;;;;10.45;5.50;;;;;;;;;;5059926;28;20036;-65
2024/02/03 06:18:08;;;;;;;8.98;4.93;;;;;;;;;;5071378;28;20020;-65
2024/02/03 06:20:34;;;;;;;9.02;5.90;;;;;;;;;;5071644;28;20021;-64
2024/02/03 06:23:00;;;;;;;10.15;5.72;;;;;;;;;;5065084;28;20036;-66
2024/02/03 06:25:25;;;;;;;10.98;5.88;;;;;;;;;;5070073;28;20059;-65
2024/02/03 06:27:51;;;;;;;8.82;5.35;;;;;;;;;;5071632;28;20546;-66
2024/02/03 06:30:17;;;;;;;9.93;5.57;;;;;;;;;;5069903;28;20532;-65
2024/02/03 06:32:43;;;;;;;12.07;5.78;;;;;;;;;;5067555;28;20438;-65
2024/02/03 06:35:09;;;;;;;8.90;5.60;;;;;;;;;;5069299;28;20078;-66
2024/02/03 06:37:35;;;;;;;10.93;6.03;;;;;;;;;;5066161;28;20484;-65
2024/02/03 06:40:02;;;;;;;8.82;5.60;;;;;;;;;;5067705;28;20017;-65
2024/02/03 06:42:28;;;;;;;11.00;6.32;;;;;;;;;;5071180;28;20613;-64
2024/02/03 06:44:54;;;;;;;11.70;6.45;;;;;;;;;;5070760;28;20020;-65
2024/02/03 06:47:20;;;;;;;10.60;6.30;;;;;;;;;;5050543;28;20426;-65
2024/02/03 06:49:46;;;;;;;11.15;6.18;;;;;;;;;;5070570;28;20398;-65
2024/02/03 06:52:12;;;;;;;11.98;6.72;;;;;;;;;;5053784;28;20402;-66
2024/02/03 06:54:38;;;;;;;13.55;6.47;;;;;;;;;;5044843;28;20375;-65
2024/02/03 06:57:04;;;;;;;13.70;7.03;;;;;;;;;;5057687;28;20036;-65
2024/02/03 06:59:30;;;;;;;9.85;5.65;;;;;;;;;;5071440;28;20086;-65
2024/02/03 07:01:56;;;;;;;12.25;6.72;;;;;;;;;;5070675;28;20414;-65
2024/02/03 07:04:22;;;;;;;15.10;6.90;;;;;;;;;;5069268;28;20418;-65
2024/02/03 07:06:48;;;;;;;12.80;6.93;;;;;;;;;;5063375;28;20037;-61
2024/02/03 07:09:13;;;;;;;15.52;6.88;;;;;;;;;;5051894;28;20024;-65
2024/02/03 07:11:39;;;;;;;10.43;6.15;;;;;;;;;;5062785;28;20033;-65
2024/02/03 07:14:05;;;;;;;12.05;6.85;;;;;;;;;;5060604;28;20120;-66
2024/02/03 07:16:31;;;;;;;10.40;6.35;;;;;;;;;;5061903;28;20036;-66
2024/02/03 07:18:57;;;;;;;12.13;7.30;;;;;;;;;;5066885;28;20031;-64
2024/02/03 07:21:23;;;;;;;13.15;6.78;;;;;;;;;;5041251;28;20025;-66
2024/02/03 07:23:50;;;;;;;12.18;6.40;;;;;;;;;;5056402;28;20040;-66
2024/02/03 07:26:16;;;;;;;12.20;7.00;;;;;;;;;;5063112;28;20103;-66
2024/02/03 07:28:42;;;;;;;13.02;7.70;;;;;;;;;;5062236;28;20036;-66
2024/02/03 07:31:08;;;;;;;13.13;7.13;;;;;;;;;;5060888;28;21596;-66
2024/02/03 07:33:34;;;;;;;12.25;6.93;;;;;;;;;;5060429;28;20078;-64
2024/02/03 07:36:00;;;;;;;12.30;6.85;;;;;;;;;;5060792;28;20036;-65
2024/02/03 07:38:26;;;;;;;10.30;6.25;;;;;;;;;;5069517;28;20021;-64
2024/02/03 07:40:52;;;;;;;12.20;6.38;;;;;;;;;;5070310;28;20062;-66
2024/02/03 07:43:18;;;;;;;11.85;6.50;;;;;;;;;;5052387;28;20020;-66
2024/02/03 07:45:44;;;;;;;12.80;6.57;;;;;;;;;;5068940;28;20036;-65
2024/02/03 07:48:10;;;;;;;16.00;6.78;;;;;;;;;;5063198;28;20039;-64
2024/02/03 07:50:36;;;;;;;11.88;6.55;;;;;;;;;;5070791;28;20033;-66
2024/02/03 07:53:02;;;;;;;13.98;7.22;;;;;;;;;;5065722;28;20085;-66
2024/02/03 07:55:28;;;;;;;14.05;7.03;;;;;;;;;;5064620;28;20035;-66
2024/02/03 07:57:54;;;;;;;13.60;6.65;;;;;;;;;;5068183;28;20091;-65
2024/02/03 08:00:20;;;;;;;12.55;6.50;;;;;;;;;;5059342;28;20121;-65
2024/02/03 08:02:46;;;;;;;12.10;6.70;;;;;;;;;;5069264;28;20025;-62
2024/02/03 08:05:12;;;;;;;12.52;6.40;;;;;;;;;;5065129;28;20086;-65
2024/02/03 08:07:39;;;;;;;11.07;5.85;;;;;;;;;;5057302;28;20025;-64
2024/02/03 08:10:06;;;;;;;12.77;7.28;;;;;;;;;;5068073;28;20055;-66
2024/02/03 08:12:31;;;;;;;13.63;7.28;;;;;;;;;;5038984;28;20081;-65
2024/02/03 08:14:57;;;;;;;11.65;6.70;;;;;;;;;;5037214;28;20044;-66
2024/02/03 08:17:23;;;;;;;13.13;6.55;;;;;;;;;;5063347;28;20033;-65
2024/02/03 08:19:49;;;;;;;11.90;6.82;;;;;;;;;;5062735;28;20107;-65
2024/02/03 08:22:15;;;;;;;11.73;6.28;;;;;;;;;;5069433;28;20390;-65
2024/02/03 08:24:41;;;;;;;12.55;7.40;;;;;;;;;;5058452;28;20025;-65
2024/02/03 08:27:08;;;;;;;13.15;7.07;;;;;;;;;;5069048;28;20071;-63
2024/02/03 08:29:34;;;;;;;14.93;7.05;;;;;;;;;;5063985;28;20025;-65
2024/02/03 08:32:00;;;;;;;12.63;7.03;;;;;;;;;;5069089;28;20040;-64
2024/02/03 08:34:28;;;;;;;11.73;6.82;;;;;;;;;;5064808;28;20466;-64
2024/02/03 08:36:53;;;;;;;10.70;6.75;;;;;;;;;;5066853;28;20059;-64
2024/02/03 08:39:19;;;;;;;12.52;6.70;;;;;;;;;;5065586;28;20482;-64
2024/02/03 08:41:45;;;;;;;13.05;6.45;;;;;;;;;;5045999;28;20456;-66
2024/02/03 08:44:11;;;;;;;9.32;5.93;;;;;;;;;;5071756;28;20017;-66
2024/02/03 08:46:37;;;;;;;10.60;6.05;;;;;;;;;;5053954;28;20494;-66
2024/02/03 08:49:03;;;;;;;8.85;4.65;;;;;;;;;;5053649;28;20390;-65
2024/02/03 08:51:29;;;;;;;9.80;5.63;;;;;;;;;;5071501;28;20406;-65
2024/02/03 08:53:55;;;;;;;9.82;5.75;;;;;;;;;;5066112;28;20425;-66
2024/02/03 08:56:21;;;;;;;8.68;5.30;;;;;;;;;;5061652;28;20418;-66
2024/02/03 08:58:47;;;;;;;11.07;5.72;;;;;;;;;;5069393;28;20067;-65
2024/02/03 09:01:13;;;;;;;8.50;5.50;;;;;;;;;;5070986;28;20024;-65
2024/02/03 09:03:39;;;;;;;11.20;5.28;;;;;;;;;;5064051;28;20055;-64
2024/02/03 09:06:05;;;;;;;8.43;5.40;;;;;;;;;;5054324;28;20025;-60
2024/02/03 09:08:31;;;;;;;8.98;5.13;;;;;;;;;;5064435;28;20033;-60
2024/02/03 09:10:57;;;;;;;9.55;4.82;;;;;;;;;;5070600;28;20131;-59
2024/02/03 09:13:23;;;;;;;9.65;6.00;;;;;;;;;;5064697;28;20036;-60
2024/02/03 09:15:49;;;;;;;9.63;5.78;;;;;;;;;;5072121;28;20048;-59
2024/02/03 09:18:15;;;;;;;7.72;4.88;;;;;;;;;;5058926;28;20021;-60
2024/02/03 09:20:41;;;;;;;7.93;4.93;;;;;;;;;;5068756;28;20051;-61
2024/02/03 09:23:07;;;;;;;8.02;4.90;;;;;;;;;;5061228;28;20028;-61
2024/02/03 09:25:33;;;;;;;8.77;5.32;;;;;;;;;;5067343;28;20025;-60
2024/02/03 09:27:59;;;;;;;8.77;5.65;;;;;;;;;;5058224;28;20632;-61
2024/02/03 09:30:25;;;;;;;9.23;5.47;;;;;;;;;;5058666;28;20078;-61
2024/02/03 09:32:51;;;;;;;9.18;4.85;;;;;;;;;;5062909;28;20074;-61
2024/02/03 09:35:17;;;;;;;7.80;4.78;;;;;;;;;;5063673;28;20111;-61
2024/02/03 09:37:44;;;;;;;8.35;5.22;;;;;;;;;;5048951;28;20056;-61
2024/02/03 09:40:16;;;;;;;9.40;5.10;;;;;;;;;;5064865;28;20043;-61
2024/02/03 09:42:42;;;;;;;6.40;3.77;;;;;;;;;;5044132;28;20062;-60
2024/02/03 09:45:08;;;;;;;7.80;4.15;;;;;;;;;;5059837;28;20137;-61
2024/02/03 09:47:34;;;;;;;9.30;4.75;;;;;;;;;;5058314;28;20078;-61
2024/02/03 09:50:05;;;;;;;5.93;3.88;;;;;;;;;;5064186;28;20029;-60
2024/02/03 09:52:31;;;;;;;6.65;3.88;;;;;;;;;;5065426;28;20542;-60
2024/02/03 09:54:57;;;;;;;7.97;4.22;;;;;;;;;;5064665;28;20115;-60
2024/02/03 09:57:23;;;;;;;7.80;4.40;;;;;;;;;;5063288;28;21347;-60
2024/02/03 09:59:50;;;;;;;6.80;4.25;;;;;;;;;;5064106;28;20028;-60
2024/02/03 10:02:17;;;;;;;8.90;3.80;;;;;;;;;;5064584;28;20432;-61
2024/02/03 10:04:45;;;;;;;6.90;4.05;;;;;;;;;;5043782;28;20025;-61
2024/02/03 10:07:11;;;;;;;7.28;4.15;;;;;;;;;;5061470;28;20120;-61
2024/02/03 10:09:38;;;;;;;5.57;4.00;;;;;;;;;;5064069;28;20498;-60
2024/02/03 10:12:04;;;;;;;7.13;4.45;;;;;;;;;;5060074;28;20044;-60
2024/02/03 10:14:30;;;;;;;6.68;4.28;;;;;;;;;;5059974;28;20053;-60
2024/02/03 10:16:57;;;;;;;7.57;4.53;;;;;;;;;;5060855;28;20494;-60
2024/02/03 10:19:23;;;;;;;8.75;4.40;;;;;;;;;;5059384;28;20020;-62
2024/02/03 10:21:53;;;;;;;5.03;3.42;;;;;;;;;;5061668;28;20024;-61
2024/02/03 10:24:24;;;;;;;6.82;3.97;;;;;;;;;;5062798;28;20363;-60
2024/02/03 10:27:03;;;;;;;6.65;3.80;;;;;;;;;;5064165;28;20123;-60
2024/02/03 10:29:29;;;;;;;5.35;3.08;;;;;;;;;;5061263;28;20036;-60
2024/02/03 10:31:55;;;;;;;4.53;2.90;;;;;;;;;;5060432;28;20407;-61
2024/02/03 10:34:21;;;;;;;4.85;3.30;;;;;;;;;;5065780;28;20029;-62
2024/02/03 10:36:47;;;;;;;4.88;3.30;;;;;;;;;;5066002;28;20041;-61
2024/02/03 10:39:14;;;;;;;5.95;3.53;;;;;;;;;;5059025;28;20028;-60
2024/02/03 10:41:42;;;;;;;4.55;2.90;;;;;;;;;;5065250;28;20032;-60
2024/02/03 10:44:08;;;;;;;5.38;3.08;;;;;;;;;;5065028;28;20532;-60
2024/02/03 10:46:37;;;;;;;4.90;3.08;;;;;;;;;;5063936;28;20032;-60
2024/02/03 10:49:07;;;;;;;4.05;2.80;;;;;;;;;;5057886;28;20054;-61
2024/02/03 10:51:33;;;;;;;5.38;3.33;;;;;;;;;;5070206;28;20029;-61
2024/02/03 10:54:04;;;;;;;5.45;3.00;;;;;;;;;;5061427;28;20555;-61
2024/02/03 10:56:32;;;;;;;5.03;3.10;;;;;;;;;;5060536;28;20040;-60
2024/02/03 10:58:58;;;;;;;6.40;3.72;;;;;;;;;;5065565;28;20050;-60
2024/02/03 11:01:33;;;;;;;4.43;2.80;;;;;;;;;;5061544;28;20029;-60
2024/02/03 11:04:01;;;;;;;6.20;3.50;;;;;;;;;;5042497;28;20544;-61
2024/02/03 11:06:28;;;;;;;5.18;3.63;;;;;;;;;;5059173;28;20029;-60
2024/02/03 11:09:08;;;;;;;5.00;2.97;;;;;;;;;;5060353;28;20029;-61
2024/02/03 11:11:34;;;;;;;5.85;3.20;;;;;;;;;;5062720;28;20521;-62
2024/02/03 11:14:02;;;;;;;5.68;3.13;;;;;;;;;;5064101;28;20049;-59
2024/02/03 11:16:39;;;;;;;4.43;2.90;;;;;;;;;;5056001;28;20036;-61
2024/02/03 11:19:09;;;;;;;6.10;3.13;;;;;;;;;;5058030;28;20474;-61
2024/02/03 11:21:40;;;;;;;5.18;3.28;;;;;;;;;;5060025;28;20024;-62
2024/02/03 11:24:06;;;;;;;5.18;2.95;;;;;;;;;;5065945;28;20028;-61
2024/02/03 11:26:32;;;;;;;3.78;2.50;;;;;;;;;;5071142;28;20024;-64
2024/02/03 11:28:58;;;;;;;7.13;3.30;;;;;;;;;;5059895;28;20146;-66
2024/02/03 11:31:26;;;;;;;5.90;3.10;;;;;;;;;;5061492;28;20025;-60
2024/02/03 11:33:52;;;;;;;5.35;3.25;;;;;;;;;;5063817;28;20102;-66
2024/02/03 11:36:18;;;;;;;4.63;3.22;;;;;;;;;;5060904;28;20386;-66
2024/02/03 11:38:48;;;;;;;5.88;3.65;;;;;;;;;;5066911;28;20053;-66
2024/02/03 11:41:15;;;;;;;4.20;2.95;;;;;;;;;;5064088;28;20486;-65
2024/02/03 11:43:41;;;;;;;4.30;3.00;;;;;;;;;;5067396;28;20017;-64
2024/02/03 11:46:09;;;;;;;5.85;2.97;;;;;;;;;;5067709;28;20569;-65
2024/02/03 11:48:36;;;;;;;6.20;3.97;;;;;;;;;;5059072;28;20028;-66
2024/02/03 11:51:03;;;;;;;4.82;3.25;;;;;;;;;;5062272;28;20025;-66
2024/02/03 11:53:29;;;;;;;6.93;3.75;;;;;;;;;;5065707;28;20205;-65
2024/02/03 11:55:56;;;;;;;6.65;4.13;;;;;;;;;;5066119;28;20355;-66
2024/02/03 11:58:23;;;;;;;5.90;3.58;;;;;;;;;;5060681;28;20024;-65
2024/02/03 12:00:59;;;;;;;6.90;4.10;;;;;;;;;;5069496;28;20020;-66
2024/02/03 12:03:25;;;;;;;6.88;3.40;;;;;;;;;;5058179;28;20023;-63
2024/02/03 12:05:51;;;;;;;5.88;3.70;;;;;;;;;;5044616;28;20037;-67
2024/02/03 12:08:17;;;;;;;6.28;3.75;;;;;;;;;;5063081;28;20139;-63
2024/02/03 12:10:43;;;;;;;5.85;3.17;;;;;;;;;;5067309;28;20122;-66
2024/02/03 12:13:09;;;;;;;6.72;3.72;;;;;;;;;;5063493;28;20102;-61
2024/02/03 12:15:35;;;;;;;7.10;3.70;;;;;;;;;;5064822;28;20047;-64
2024/02/03 12:18:02;;;;;;;5.18;3.28;;;;;;;;;;5045587;28;20155;-64
2024/02/03 12:20:28;;;;;;;4.40;2.88;;;;;;;;;;5066520;28;20020;-66
2024/02/03 12:22:56;;;;;;;7.03;3.35;;;;;;;;;;5066629;28;20032;-64
2024/02/03 12:25:22;;;;;;;5.10;3.05;;;;;;;;;;5061761;28;20028;-66
2024/02/03 12:27:48;;;;;;;4.88;2.85;;;;;;;;;;5048381;28;20108;-67
2024/02/03 12:30:21;;;;;;;4.72;3.28;;;;;;;;;;5062323;28;20037;-65
2024/02/03 12:32:47;;;;;;;;;;;;;;;;;;5068189;28;20056;-64
2024/02/03 12:35:14;;;;;;;4.13;2.75;;;;;;;;;;5069631;28;20719;-66
2024/02/03 12:37:41;;;;;;;5.63;3.72;;;;;;;;;;5064741;28;20020;-58
2024/02/03 12:40:11;;;;;;;6.85;3.35;;;;;;;;;;5064009;28;20032;-59
2024/02/03 12:42:37;;;;;;;5.35;3.55;;;;;;;;;;5045284;28;20497;-59
2024/02/03 12:45:06;;;;;;;6.07;3.50;;;;;;;;;;5064643;28;20063;-58
2024/02/03 12:47:35;;;;;;;7.47;3.97;;;;;;;;;;5063107;28;20031;-59
2024/02/03 12:50:02;;;;;;;5.50;3.35;;;;;;;;;;5061811;28;20024;-59
2024/02/03 12:52:29;;;;;;;5.95;3.75;;;;;;;;;;5062528;28;20025;-60
2024/02/03 12:54:56;;;;;;;6.70;3.40;;;;;;;;;;5061223;28;20525;-58
2024/02/03 12:57:22;;;;;;;5.63;3.45;;;;;;;;;;5063179;28;20490;-59
2024/02/03 12:59:47;;;;;;;5.75;3.30;;;;;;;;;;5066156;28;20036;-58
2024/02/03 13:02:13;;;;;;;5.53;3.38;;;;;;;;;;5065184;28;20028;-59
2024/02/03 13:04:39;;;;;;;4.93;3.22;;;;;;;;;;5060805;28;20031;-58
2024/02/03 13:07:05;;;;;;;5.72;3.65;;;;;;;;;;5067295;28;20025;-58
2024/02/03 13:09:31;;;;;;;6.03;3.95;;;;;;;;;;5064094;28;20086;-57
2024/02/03 13:11:57;;;;;;;7.38;3.80;;;;;;;;;;5063817;28;20028;-61
2024/02/03 13:14:23;;;;;;;6.40;3.60;;;;;;;;;;5068313;28;20062;-60
2024/02/03 13:16:49;;;;;;;6.35;4.00;;;;;;;;;;5066294;28;20043;-62
2024/02/03 13:19:15;;;;;;;6.80;4.25;;;;;;;;;;5065193;28;20205;-60
2024/02/03 13:21:41;;;;;;;6.28;3.97;;;;;;;;;;5071211;28;20052;-58
2024/02/03 13:24:08;;;;;;;6.60;4.20;;;;;;;;;;5064687;28;20017;-59
2024/02/03 13:26:34;;;;;;;7.10;4.03;;;;;;;;;;5056402;28;20032;-59
2024/02/03 13:29:00;;;;;;;10.27;4.43;;;;;;;;;;5070813;28;20143;-58
2024/02/03 13:31:27;;;;;;;7.07;4.50;;;;;;;;;;5072643;28;20056;-59
2024/02/03 13:33:53;;;;;;;6.70;4.03;;;;;;;;;;5066458;28;20060;-58
2024/02/03 13:36:20;;;;;;;6.75;3.97;;;;;;;;;;5061456;28;20484;-58
2024/02/03 13:38:46;;;;;;;7.75;4.35;;;;;;;;;;5064654;28;20115;-60
2024/02/03 13:41:13;;;;;;;6.85;4.82;;;;;;;;;;5069477;28;20119;-58
2024/02/03 13:43:39;;;;;;;10.73;4.25;;;;;;;;;;5066128;28;20017;-58
2024/02/03 13:46:06;;;;;;;8.50;4.93;;;;;;;;;;5060935;28;20114;-62
2024/02/03 13:48:32;;;;;;;8.05;4.82;;;;;;;;;;5070177;28;20078;-61
2024/02/03 13:50:58;;;;;;;7.43;4.32;;;;;;;;;;5072090;28;20372;-61
2024/02/03 13:53:25;;;;;;;9.30;5.47;;;;;;;;;;5066903;28;20505;-60
2024/02/03 13:55:51;;;;;;;6.53;4.35;;;;;;;;;;5066569;28;20447;-61
2024/02/03 13:58:17;;;;;;;7.68;4.60;;;;;;;;;;5072475;28;20020;-61
2024/02/03 14:00:43;;;;;;;6.78;3.72;;;;;;;;;;5068349;28;20052;-61
2024/02/03 14:03:09;;;;;;;7.13;4.10;;;;;;;;;;5067395;28;20143;-61
2024/02/03 14:05:35;;;;;;;7.85;3.80;;;;;;;;;;5065581;28;20028;-61
2024/02/03 14:08:01;;;;;;;5.70;4.05;;;;;;;;;;5072622;28;20051;-61
2024/02/03 14:10:27;;;;;;;4.95;3.60;;;;;;;;;;5069976;28;20029;-61
2024/02/03 14:12:54;;;;;;;5.22;3.30;;;;;;;;;;5068369;28;20371;-61
2024/02/03 14:15:20;;;;;;;5.22;3.40;;;;;;;;;;5070845;28;20040;-61
2024/02/03 14:17:46;;;;;;;5.32;3.30;;;;;;;;;;5067692;28;20024;-61
2024/02/03 14:20:12;;;;;;;5.32;3.60;;;;;;;;;;5065974;28;20029;-61
2024/02/03 14:22:38;;;;;;;5.72;3.40;;;;;;;;;;5065166;28;20426;-61
2024/02/03 14:25:04;;;;;;;4.50;3.08;;;;;;;;;;5061802;28;20064;-61
2024/02/03 14:27:32;;;;;;;4.05;2.40;;;;;;;;;;5065918;28;20049;-60
2024/02/03 14:29:58;;;;;;;3.30;2.20;;;;;;;;;;5069826;28;20497;-61